FW3835 Weather Reports


Display with metric or nautical units.
time (UTC)temp
F
wind
direction
speed
MPH
gust
MPH
rain 1hr
in
rain 24hr
in
rain mn
in
humidity
%
barometer
mb
20210421181428 38 255 2.0 9.0 0.00 0.00 0.00 48 1017.0
20210421180929 38 186 3.0 9.0 0.00 0.00 0.00 47 1017.1
20210421180427 38 355 3.0 8.0 0.00 0.00 0.00 47 1017.1
20210421180101 38 268 2.0 5.0 0.00 0.00 0.00 47 1017.1
20210421175429 38 259 3.0 8.0 0.00 0.00 0.00 47 1017.1
20210421175042 38 312 3.0 8.0 0.00 0.00 0.00 46 1017.1
20210421174429 37 273 3.0 8.0 0.00 0.00 0.00 48 1017.2
20210421173929 38 194 3.0 9.0 0.00 0.00 0.00 47 1017.2
20210421173427 37 257 3.0 9.0 0.00 0.00 0.00 48 1017.3
20210421172930 36 223 3.0 7.0 0.00 0.00 0.00 48 1017.6
20210421172600 37 205 3.0 7.0 0.00 0.00 0.00 47 1017.5
20210421163449 34 299 3.0 11.0 0.00 0.00 0.00 51 1018.0
20210421162112 34 275 3.0 9.0 0.00 0.00 0.00 50 1018.2
20210421153930 33 305 3.0 6.0 0.00 0.00 0.00 50 1018.3
20210421152404 33 315 3.0 8.0 0.00 0.00 0.00 52 1018.4
20210421144152 31 250 2.0 8.0 0.00 0.00 0.00 55 1018.4
20210421143341 32 321 2.0 8.0 0.00 0.00 0.00 56 1018.5
20210421142719 32 309 2.0 7.0 0.00 0.00 0.00 56 1018.4
20210421141622 31 296 1.0 4.0 0.00 0.00 0.00 60 1018.7
20210421134536 30 284 0.0 0.0 0.00 0.00 0.00 61 1018.9
20210421134105 30 284 0.0 0.0 0.00 0.00 0.00 63 1019.0
20210421133549 29 287 0.0 0.0 0.00 0.00 0.00 63 1019.0
20210421133048 29 277 0.0 0.0 0.00 0.00 0.00 65 1018.9
20210421132455 28 280 0.0 0.0 0.00 0.00 0.00 65 1019.0
20210421131949 28 281 0.0 0.0 0.00 0.00 0.00 66 1019.0
20210421131440 28 282 0.0 0.0 0.00 0.00 0.00 68 1019.0
20210421125523 23 301 0.0 0.0 0.00 0.00 0.00 77 1019.0
20210421124305 23 301 0.0 0.0 0.00 0.00 0.00 77 1019.0
20210421123930 22 301 0.0 0.0 0.00 0.00 0.00 77 1019.0
20210421123333 22 301 0.0 1.0 0.00 0.00 0.00 77 1019.1
20210421122930 22 301 0.0 1.0 0.00 0.00 0.00 77 1019.0
20210421122451 21 301 0.0 0.0 0.00 0.00 0.00 77 1019.1
20210421121907 21 301 0.0 0.0 0.00 0.00 0.00 77 1019.1
20210421121145 21 301 0.0 0.0 0.00 0.00 0.00 77 1019.1
20210421114936 20 301 0.0 0.0 0.00 0.00 0.00 77 1019.0
20210421114255 20 301 0.0 0.0 0.00 0.00 0.00 77 1019.0
20210421113850 20 301 0.0 0.0 0.00 0.00 0.00 77 1019.1
20210421113332 20 301 0.0 0.0 0.00 0.00 0.00 77 1019.0
20210421112810 19 301 0.0 0.0 0.00 0.00 0.00 77 1019.0
20210421112253 19 301 0.0 0.0 0.00 0.00 0.00 77 1019.0
20210421111840 19 301 0.0 0.0 0.00 0.00 0.00 77 1019.1
20210421110932 19 301 0.0 0.0 0.00 0.00 0.00 76 1019.1
20210421105225 19 301 0.0 0.0 0.00 0.00 0.00 76 1019.1
20210421104249 19 301 0.0 0.0 0.00 0.00 0.00 75 1019.1
20210421103756 19 301 0.0 0.0 0.00 0.00 0.00 75 1019.1
20210421103319 19 301 0.0 0.0 0.00 0.00 0.00 75 1019.2
20210421102754 18 301 0.0 0.0 0.00 0.00 0.00 75 1019.3
20210421102251 18 301 0.0 0.0 0.00 0.00 0.00 75 1019.2
20210421101748 18 301 0.0 0.0 0.00 0.00 0.00 75 1019.2
20210421101240 18 301 0.0 0.0 0.00 0.00 0.00 74 1019.2
20210421100748 18 301 0.0 0.0 0.00 0.00 0.00 74 1019.2
20210421100727 18 301 0.0 0.0 0.00 0.00 0.00 74 1019.3
20210421095431 19 301 0.0 0.0 0.00 0.00 0.00 74 1019.3
20210421094330 19 301 0.0 0.0 0.00 0.00 0.00 74 1019.3
20210421093743 18 301 0.0 0.0 0.00 0.00 0.00 73 1019.4
20210421093244 18 301 0.0 0.0 0.00 0.00 0.00 73 1019.5
20210421092734 19 301 0.0 0.0 0.00 0.00 0.00 73 1019.4
20210421092235 19 301 0.0 0.0 0.00 0.00 0.00 73 1019.4
20210421091744 19 301 0.0 0.0 0.00 0.00 0.00 72 1019.3
20210421091242 19 301 0.0 0.0 0.00 0.00 0.00 72 1019.4
20210421090756 19 301 0.0 0.0 0.00 0.00 0.00 71 1019.4
20210421085413 19 301 0.0 0.0 0.00 0.00 0.00 70 1019.4
20210421084233 19 301 0.0 0.0 0.00 0.00 0.00 71 1019.4
20210421083735 19 301 0.0 0.0 0.00 0.00 0.00 71 1019.3
20210421083254 19 301 0.0 0.0 0.00 0.00 0.00 71 1019.3
20210421082757 19 301 0.0 0.0 0.00 0.00 0.00 71 1019.4
20210421082231 19 301 0.0 0.0 0.00 0.00 0.00 70 1019.4
20210421081755 19 301 0.0 0.0 0.00 0.00 0.00 70 1019.3
20210421081340 19 301 0.0 0.0 0.00 0.00 0.00 69 1019.5
20210421080948 20 301 0.0 0.0 0.00 0.00 0.00 68 1019.5
20210421075329 20 301 0.0 0.0 0.00 0.00 0.00 68 1019.6
20210421074228 20 301 0.0 0.0 0.00 0.00 0.00 67 1019.6
20210421073726 20 301 0.0 0.0 0.00 0.00 0.00 67 1019.8
20210421073231 20 301 0.0 0.0 0.00 0.00 0.00 68 1019.8
20210421072716 20 301 0.0 0.0 0.00 0.00 0.00 67 1019.8
20210421072219 20 301 0.0 0.0 0.00 0.00 0.00 67 1019.9
20210421071721 20 301 0.0 0.0 0.00 0.00 0.00 67 1020.0
20210421071222 20 301 0.0 0.0 0.00 0.00 0.00 67 1019.9
20210421070916 20 301 0.0 0.0 0.00 0.00 0.00 67 1020.1
20210421070613 20 301 0.0 0.0 0.00 0.00 0.00 67 1020.1
20210421064707 20 301 0.0 0.0 0.00 0.00 0.00 67 1020.1
20210421064155 20 301 0.0 0.0 0.00 0.00 0.00 67 1020.2
20210421063647 20 301 0.0 0.0 0.00 0.00 0.00 67 1020.1
20210421063138 20 301 0.0 0.0 0.00 0.00 0.00 67 1020.2
20210421062917 20 301 0.0 0.0 0.00 0.00 0.00 67 1020.1
20210421062512 20 301 0.0 0.0 0.00 0.00 0.00 67 1020.1
20210421061620 20 301 0.0 0.0 0.00 0.00 0.00 66 1020.1
20210421061154 21 301 0.0 0.0 0.00 0.00 0.00 66 1020.1
20210421060637 21 301 0.0 0.0 0.00 0.00 0.00 66 1020.1
20210421060255 21 301 0.0 0.0 0.00 0.00 0.00 66 1020.1
20210421055432 21 301 0.0 0.0 0.00 0.00 0.00 65 1020.2
20210421054616 21 301 0.0 0.0 0.00 0.00 0.00 65 1020.1
20210421054113 21 301 0.0 0.0 0.00 0.00 0.00 65 1020.1
20210421053613 21 301 0.0 0.0 0.00 0.00 0.00 65 1020.2
20210421053146 21 301 0.0 0.0 0.00 0.00 0.00 65 1020.1
20210421053022 21 301 0.0 0.0 0.00 0.00 0.00 64 1020.1
20210421052526 21 301 0.0 0.0 0.00 0.00 0.00 64 1020.1
20210421051613 22 301 0.0 0.0 0.00 0.00 0.00 64 1020.1
20210421051106 22 301 0.0 0.0 0.00 0.00 0.00 64 1020.1
20210421050604 22 301 0.0 0.0 0.00 0.00 0.00 63 1020.2
20210421050111 22 301 0.0 0.0 0.00 0.00 0.00 63 1020.2
20210421045908 22 301 0.0 0.0 0.00 0.00 0.00 63 1020.2
20210421045256 22 301 0.0 0.0 0.00 0.00 0.00 63 1020.1
20210421044549 22 301 0.0 0.0 0.00 0.00 0.00 63 1020.2
20210421044047 22 301 0.0 0.0 0.00 0.00 0.00 63 1020.2
20210421043545 22 301 0.0 0.0 0.00 0.00 0.00 62 1020.2
20210421043053 22 301 0.0 0.0 0.00 0.00 0.00 61 1020.2
20210421042846 22 301 0.0 0.0 0.00 0.00 0.00 61 1020.2
20210421042222 22 301 0.0 0.0 0.00 0.00 0.00 60 1020.2
20210421041536 22 301 0.0 0.0 0.00 0.00 0.00 60 1020.2
20210421041035 23 301 0.0 0.0 0.00 0.00 0.00 60 1020.2
20210421040533 23 301 0.0 0.0 0.00 0.00 0.00 59 1020.2
20210421040033 23 301 0.0 0.0 0.00 0.00 0.00 59 1020.3
20210421035843 23 301 0.0 0.0 0.00 0.00 0.00 58 1020.2
20210421035117 24 301 0.0 0.0 0.00 0.00 0.00 58 1020.3
20210421034526 24 301 0.0 0.0 0.00 0.00 0.00 57 1020.2
20210421034041 24 301 0.0 0.0 0.00 0.00 0.00 57 1020.3
20210421033532 24 301 0.0 0.0 0.00 0.00 0.00 57 1020.4
20210421033025 24 301 0.0 0.0 0.00 0.00 0.00 57 1020.3
20210421032733 24 301 0.0 0.0 0.00 0.00 0.00 57 1020.4
20210421032056 24 301 0.0 0.0 0.00 0.00 0.00 57 1020.3
20210421031513 25 301 0.0 0.0 0.00 0.00 0.00 57 1020.3
20210421030957 25 301 0.0 1.0 0.00 0.00 0.00 56 1020.4
20210421030449 25 301 0.0 1.0 0.00 0.00 0.00 55 1020.4
20210421030046 26 301 0.0 1.0 0.00 0.00 0.00 55 1020.3
20210421025830 26 301 0.0 0.0 0.00 0.00 0.00 55 1020.3
20210421025117 26 301 0.0 0.0 0.00 0.00 0.00 55 1020.3
20210421024442 26 301 0.0 3.0 0.00 0.00 0.00 55 1020.3
20210421023946 26 301 1.0 4.0 0.00 0.00 0.00 54 1020.3
20210421023438 27 290 1.0 6.0 0.00 0.00 0.00 54 1020.2
20210421022938 27 277 1.0 6.0 0.00 0.00 0.00 53 1020.2
20210421022750 27 271 1.0 4.0 0.00 0.00 0.00 52 1020.2
20210421022126 27 291 1.0 4.0 0.00 0.00 0.00 51 1020.2
20210421021435 28 304 2.0 5.0 0.00 0.00 0.00 50 1020.2
20210421020934 28 314 2.0 5.0 0.00 0.00 0.00 50 1020.1
20210421020436 28 304 2.0 5.0 0.00 0.00 0.00 49 1020.1
20210421015933 28 295 2.0 5.0 0.00 0.00 0.00 48 1020.1
20210421015808 28 336 3.0 8.0 0.00 0.00 0.00 48 1020.0
20210421015109 28 298 3.0 8.0 0.00 0.00 0.00 47 1020.0
20210421014444 28 326 3.0 8.0 0.00 0.00 0.00 45 1020.0
20210421013937 28 279 2.0 8.0 0.00 0.00 0.00 44 1019.9
20210421013429 28 320 2.0 9.0 0.00 0.00 0.00 43 1019.9
20210421012932 28 296 2.0 9.0 0.00 0.00 0.00 42 1019.9
20210421012606 28 307 2.0 7.0 0.00 0.00 0.00 44 1019.8
20210421012011 28 301 2.0 7.0 0.00 0.00 0.00 44 1019.8
20210421011436 28 296 2.0 5.0 0.00 0.00 0.00 43 1019.6
20210421010925 28 309 2.0 10.0 0.00 0.00 0.00 42 1019.6
20210421010426 28 321 2.0 10.0 0.00 0.00 0.00 42 1019.6
20210421005855 29 304 3.0 8.0 0.00 0.00 0.00 42 1019.6
20210421005154 29 333 3.0 8.0 0.00 0.00 0.00 41 1019.6
20210421004431 29 327 4.0 9.0 0.00 0.00 0.00 41 1019.5
20210421003937 29 318 3.0 9.0 0.00 0.00 0.00 42 1019.6
20210421003427 29 330 3.0 10.0 0.00 0.00 0.00 42 1019.6
20210421002933 29 337 2.0 10.0 0.00 0.00 0.00 42 1019.8
20210421002712 29 329 3.0 8.0 0.00 0.00 0.00 43 1019.6
20210421002052 29 355 3.0 8.0 0.00 0.00 0.00 42 1019.8
20210421001425 29 327 3.0 9.0 0.00 0.00 0.00 42 1019.6
20210421000925 29 292 4.0 9.0 0.00 0.00 0.00 42 1019.6
20210421000427 29 29 5.0 11.0 0.00 0.00 0.00 41 1019.6
20210420235926 29 329 4.0 12.0 0.00 0.00 0.00 41 1019.8
20210420235748 30 318 4.0 13.0 0.00 0.00 0.00 41 1019.6
20210420235058 30 241 4.0 13.0 0.00 0.00 0.00 39 1019.6
20210420234422 30 286 3.0 11.0 0.00 0.00 0.00 38 1019.6
20210420233920 30 22 4.0 11.0 0.00 0.00 0.00 39 1019.6
20210420233422 30 47 4.0 11.0 0.00 0.00 0.00 39 1019.6
20210420232930 30 5 4.0 10.0 0.00 0.00 0.00 38 1019.6
20210420232820 30 0 4.0 8.0 0.00 0.00 0.00 39 1019.6
20210420232025 30 285 4.0 9.0 0.00 0.00 0.00 39 1019.6
20210420231415 30 288 4.0 11.0 0.00 0.00 0.00 40 1019.6
20210420230914 30 297 4.0 11.0 0.00 0.00 0.00 40 1019.5
20210420230413 30 351 4.0 9.0 0.00 0.00 0.00 39 1019.4
20210420225914 30 296 5.0 13.0 0.00 0.00 0.00 39 1019.4
20210420225602 30 292 6.0 13.0 0.00 0.00 0.00 40 1019.4
20210420225100 31 298 5.0 12.0 0.00 0.00 0.00 39 1019.3
20210420224413 31 317 4.0 13.0 0.00 0.00 0.00 40 1019.3
20210420223911 31 325 5.0 13.0 0.00 0.00 0.00 40 1019.3
20210420223413 30 332 6.0 13.0 0.00 0.00 0.00 42 1019.3
20210420222911 30 313 6.0 13.0 0.00 0.00 0.00 41 1019.3
20210420222530 31 308 4.0 10.0 0.00 0.00 0.00 42 1019.3
20210420221934 31 333 6.0 13.0 0.00 0.00 0.00 42 1019.3
20210420221411 31 286 6.0 13.0 0.00 0.00 0.00 41 1019.3
20210420220905 31 315 5.0 12.0 0.00 0.00 0.00 41 1019.1
20210420220358 31 326 5.0 12.0 0.00 0.00 0.00 40 1019.1
20210420215852 31 280 4.0 10.0 0.00 0.00 0.00 39 1019.1
20210420215622 31 332 5.0 14.0 0.00 0.00 0.00 41 1019.1
20210420215017 31 295 6.0 17.0 0.00 0.00 0.00 42 1019.1
20210420214337 31 316 6.0 14.0 0.00 0.00 0.00 40 1018.9
20210420213828 32 321 6.0 14.0 0.00 0.00 0.00 37 1019.0
20210420213325 31 265 6.0 14.0 0.00 0.00 0.00 38 1019.0
20210420212826 31 318 6.0 14.0 0.00 0.00 0.00 38 1019.1
20210420212631 31 263 6.0 15.0 0.00 0.00 0.00 36 1019.1
20210420211844 32 271 5.0 15.0 0.00 0.00 0.00 36 1019.1
20210420211258 32 26 4.0 10.0 0.00 0.00 0.00 34 1019.0
20210420210756 32 302 5.0 11.0 0.00 0.00 0.00 36 1019.1
20210420210249 32 247 5.0 13.0 0.00 0.00 0.00 36 1019.0
20210420205740 32 324 5.0 13.0 0.00 0.00 0.00 36 1018.9
20210420205323 32 351 5.0 10.0 0.00 0.00 0.00 35 1019.0
20210420204732 32 318 5.0 11.0 0.00 0.00 0.00 35 1019.0
20210420204228 32 340 5.0 12.0 0.00 0.00 0.00 36 1019.0
20210420203724 32 338 6.0 12.0 0.00 0.00 0.00 36 1019.1
20210420203210 32 311 6.0 11.0 0.00 0.00 0.00 36 1019.0
20210420202705 32 327 5.0 11.0 0.00 0.00 0.00 37 1019.0
20210420202256 32 28 4.0 13.0 0.00 0.00 0.00 36 1019.0
20210420201654 32 298 5.0 13.0 0.00 0.00 0.00 37 1019.0
20210420201148 32 325 5.0 13.0 0.00 0.00 0.00 37 1019.1
20210420200640 32 317 5.0 13.0 0.00 0.00 0.00 37 1019.1
20210420200134 33 282 5.0 13.0 0.00 0.00 0.00 37 1019.1
20210420195726 33 290 4.0 12.0 0.00 0.00 0.00 37 1019.0
20210420195157 33 313 5.0 13.0 0.00 0.00 0.00 39 1019.0
20210420194619 32 273 5.0 13.0 0.00 0.00 0.00 40 1019.0
20210420194110 32 344 5.0 13.0 0.00 0.00 0.00 40 1019.0
20210420193609 32 291 5.0 15.0 0.00 0.00 0.00 43 1019.1
20210420193101 32 304 5.0 15.0 0.00 0.00 0.00 40 1019.2
20210420192714 33 303 5.0 14.0 0.00 0.00 0.00 37 1019.0
20210420192232 33 291 4.0 13.0 0.00 0.00 0.00 36 1019.0
20210420191542 33 266 4.0 12.0 0.00 0.00 0.00 36 1019.1
20210420191059 32 324 5.0 13.0 0.00 0.00 0.00 37 1019.1
20210420190542 32 292 6.0 14.0 0.00 0.00 0.00 40 1019.2
20210420190025 33 286 5.0 13.0 0.00 0.00 0.00 38 1019.1
20210420185548 33 40 4.0 13.0 0.00 0.00 0.00 37 1019.1
20210420185047 32 273 4.0 10.0 0.00 0.00 0.00 38 1019.1
20210420184518 31 281 6.0 14.0 0.00 0.00 0.00 39 1019.2
20210420184010 31 268 6.0 14.0 0.00 0.00 0.00 38 1019.2
20210420183453 32 32 5.0 12.0 0.00 0.00 0.00 36 1019.2
20210420182947 32 279 4.0 11.0 0.00 0.00 0.00 38 1019.2
20210420182712 32 5 6.0 16.0 0.00 0.00 0.00 38 1019.2
20210420182116 33 329 6.0 16.0 0.00 0.00 0.00 36 1019.3